sensor_id;sensor_type;location;lat;lon;timestamp;P1;durP1;ratioP1;P2;durP2;ratioP2
13605;SDS011;6874;52.084;5.090;2022-11-20T00:00:48;6.20;;;6.00;;
13605;SDS011;6874;52.084;5.090;2022-11-20T00:03:14;5.30;;;5.20;;
13605;SDS011;6874;52.084;5.090;2022-11-20T00:05:40;6.13;;;5.93;;
13605;SDS011;6874;52.084;5.090;2022-11-20T00:08:05;6.40;;;6.20;;
13605;SDS011;6874;52.084;5.090;2022-11-20T00:10:31;6.53;;;6.33;;
13605;SDS011;6874;52.084;5.090;2022-11-20T00:12:59;4.80;;;4.70;;
13605;SDS011;6874;52.084;5.090;2022-11-20T00:15:25;4.70;;;4.60;;
13605;SDS011;6874;52.084;5.090;2022-11-20T00:17:51;4.57;;;4.47;;
13605;SDS011;6874;52.084;5.090;2022-11-20T00:20:16;5.47;;;5.37;;
13605;SDS011;6874;52.084;5.090;2022-11-20T00:22:42;5.13;;;5.03;;
13605;SDS011;6874;52.084;5.090;2022-11-20T00:25:07;6.20;;;6.00;;
13605;SDS011;6874;52.084;5.090;2022-11-20T00:27:33;6.77;;;6.57;;
13605;SDS011;6874;52.084;5.090;2022-11-20T00:29:58;6.80;;;6.60;;
13605;SDS011;6874;52.084;5.090;2022-11-20T00:32:24;5.30;;;5.20;;
13605;SDS011;6874;52.084;5.090;2022-11-20T00:34:49;6.23;;;6.03;;
13605;SDS011;6874;52.084;5.090;2022-11-20T00:37:15;5.50;;;5.40;;
13605;SDS011;6874;52.084;5.090;2022-11-20T00:39:40;5.27;;;5.17;;
13605;SDS011;6874;52.084;5.090;2022-11-20T00:42:06;5.20;;;5.10;;
13605;SDS011;6874;52.084;5.090;2022-11-20T00:44:32;5.30;;;5.20;;
13605;SDS011;6874;52.084;5.090;2022-11-20T00:46:57;5.30;;;5.20;;
13605;SDS011;6874;52.084;5.090;2022-11-20T00:49:23;5.67;;;5.53;;
13605;SDS011;6874;52.084;5.090;2022-11-20T00:51:48;5.80;;;5.60;;
13605;SDS011;6874;52.084;5.090;2022-11-20T00:54:14;6.80;;;6.60;;
13605;SDS011;6874;52.084;5.090;2022-11-20T00:56:39;6.17;;;5.97;;
13605;SDS011;6874;52.084;5.090;2022-11-20T00:59:05;5.53;;;5.43;;
13605;SDS011;6874;52.084;5.090;2022-11-20T01:01:30;5.83;;;5.63;;
13605;SDS011;6874;52.084;5.090;2022-11-20T01:03:57;5.50;;;5.40;;
13605;SDS011;6874;52.084;5.090;2022-11-20T01:06:25;5.20;;;5.10;;
13605;SDS011;6874;52.084;5.090;2022-11-20T01:08:56;5.37;;;5.27;;
13605;SDS011;6874;52.084;5.090;2022-11-20T01:11:25;6.90;;;6.70;;
13605;SDS011;6874;52.084;5.090;2022-11-20T01:13:52;5.33;;;5.23;;
13605;SDS011;6874;52.084;5.090;2022-11-20T01:16:21;5.20;;;5.10;;
13605;SDS011;6874;52.084;5.090;2022-11-20T01:18:49;5.20;;;5.10;;
13605;SDS011;6874;52.084;5.090;2022-11-20T01:21:20;5.50;;;5.40;;
13605;SDS011;6874;52.084;5.090;2022-11-20T01:23:50;7.77;;;7.57;;
13605;SDS011;6874;52.084;5.090;2022-11-20T01:26:21;5.53;;;5.43;;
13605;SDS011;6874;52.084;5.090;2022-11-20T01:28:48;7.70;;;7.50;;
13605;SDS011;6874;52.084;5.090;2022-11-20T01:31:26;5.30;;;5.20;;
13605;SDS011;6874;52.084;5.090;2022-11-20T01:33:55;5.47;;;5.37;;
13605;SDS011;6874;52.084;5.090;2022-11-20T01:36:23;6.50;;;6.30;;
13605;SDS011;6874;52.084;5.090;2022-11-20T01:38:53;6.57;;;6.37;;
13605;SDS011;6874;52.084;5.090;2022-11-20T01:41:21;7.50;;;7.30;;
13605;SDS011;6874;52.084;5.090;2022-11-20T01:44:06;5.20;;;5.10;;
13605;SDS011;6874;52.084;5.090;2022-11-20T01:46:35;8.60;;;8.40;;
13605;SDS011;6874;52.084;5.090;2022-11-20T01:51:57;8.20;;;8.00;;
13605;SDS011;6874;52.084;5.090;2022-11-20T01:54:45;8.33;;;8.13;;
13605;SDS011;6874;52.084;5.090;2022-11-20T01:57:33;5.40;;;5.30;;
13605;SDS011;6874;52.084;5.090;2022-11-20T02:00:10;5.00;;;4.90;;
13605;SDS011;6874;52.084;5.090;2022-11-20T02:02:39;6.97;;;6.77;;
13605;SDS011;6874;52.084;5.090;2022-11-20T02:05:10;8.20;;;8.00;;
13605;SDS011;6874;52.084;5.090;2022-11-20T02:07:56;8.37;;;8.17;;
13605;SDS011;6874;52.084;5.090;2022-11-20T02:10:22;7.67;;;7.47;;
13605;SDS011;6874;52.084;5.090;2022-11-20T02:12:48;5.60;;;5.50;;
13605;SDS011;6874;52.084;5.090;2022-11-20T02:15:33;5.47;;;5.37;;
13605;SDS011;6874;52.084;5.090;2022-11-20T02:17:58;5.93;;;5.73;;
13605;SDS011;6874;52.084;5.090;2022-11-20T02:20:24;5.90;;;5.73;;
13605;SDS011;6874;52.084;5.090;2022-11-20T02:22:53;6.20;;;6.00;;
13605;SDS011;6874;52.084;5.090;2022-11-20T02:25:23;5.90;;;5.70;;
13605;SDS011;6874;52.084;5.090;2022-11-20T02:27:51;8.47;;;8.27;;
13605;SDS011;6874;52.084;5.090;2022-11-20T02:30:16;5.87;;;5.67;;
13605;SDS011;6874;52.084;5.090;2022-11-20T02:32:43;5.80;;;5.60;;
13605;SDS011;6874;52.084;5.090;2022-11-20T02:37:36;6.20;;;6.00;;
13605;SDS011;6874;52.084;5.090;2022-11-20T02:40:03;6.30;;;6.10;;
13605;SDS011;6874;52.084;5.090;2022-11-20T02:42:29;6.23;;;6.03;;
13605;SDS011;6874;52.084;5.090;2022-11-20T02:44:55;8.10;;;7.90;;
13605;SDS011;6874;52.084;5.090;2022-11-20T02:47:20;7.57;;;7.37;;
13605;SDS011;6874;52.084;5.090;2022-11-20T02:49:46;8.27;;;8.07;;
13605;SDS011;6874;52.084;5.090;2022-11-20T02:52:11;5.87;;;5.67;;
13605;SDS011;6874;52.084;5.090;2022-11-20T02:54:37;6.00;;;5.80;;
13605;SDS011;6874;52.084;5.090;2022-11-20T02:57:02;5.60;;;5.47;;
13605;SDS011;6874;52.084;5.090;2022-11-20T02:59:28;6.07;;;5.87;;
13605;SDS011;6874;52.084;5.090;2022-11-20T03:01:53;7.10;;;6.90;;
13605;SDS011;6874;52.084;5.090;2022-11-20T03:04:19;5.30;;;5.20;;
13605;SDS011;6874;52.084;5.090;2022-11-20T03:06:45;6.43;;;6.23;;
13605;SDS011;6874;52.084;5.090;2022-11-20T03:09:10;5.90;;;5.70;;
13605;SDS011;6874;52.084;5.090;2022-11-20T03:11:36;6.10;;;5.90;;
13605;SDS011;6874;52.084;5.090;2022-11-20T03:14:02;6.00;;;5.80;;
13605;SDS011;6874;52.084;5.090;2022-11-20T03:16:30;5.20;;;5.10;;
13605;SDS011;6874;52.084;5.090;2022-11-20T03:18:57;5.27;;;5.17;;
13605;SDS011;6874;52.084;5.090;2022-11-20T03:21:22;6.10;;;5.90;;
13605;SDS011;6874;52.084;5.090;2022-11-20T03:23:48;6.10;;;5.90;;
13605;SDS011;6874;52.084;5.090;2022-11-20T03:26:17;6.00;;;5.80;;
13605;SDS011;6874;52.084;5.090;2022-11-20T03:28:54;5.87;;;5.67;;
13605;SDS011;6874;52.084;5.090;2022-11-20T03:31:22;7.23;;;7.03;;
13605;SDS011;6874;52.084;5.090;2022-11-20T03:33:49;6.20;;;6.00;;
13605;SDS011;6874;52.084;5.090;2022-11-20T03:36:16;5.90;;;5.70;;
13605;SDS011;6874;52.084;5.090;2022-11-20T03:38:44;5.60;;;5.50;;
13605;SDS011;6874;52.084;5.090;2022-11-20T03:41:11;5.20;;;5.10;;
13605;SDS011;6874;52.084;5.090;2022-11-20T03:43:38;5.83;;;5.63;;
13605;SDS011;6874;52.084;5.090;2022-11-20T03:46:05;6.80;;;6.60;;
13605;SDS011;6874;52.084;5.090;2022-11-20T03:48:31;6.77;;;6.57;;
13605;SDS011;6874;52.084;5.090;2022-11-20T03:51:10;5.80;;;5.60;;
13605;SDS011;6874;52.084;5.090;2022-11-20T03:53:44;5.50;;;5.40;;
13605;SDS011;6874;52.084;5.090;2022-11-20T03:56:11;6.57;;;6.37;;
13605;SDS011;6874;52.084;5.090;2022-11-20T03:58:39;4.90;;;4.80;;
13605;SDS011;6874;52.084;5.090;2022-11-20T04:01:06;5.27;;;5.17;;
13605;SDS011;6874;52.084;5.090;2022-11-20T04:03:31;5.50;;;5.40;;
13605;SDS011;6874;52.084;5.090;2022-11-20T04:06:01;5.80;;;5.60;;
13605;SDS011;6874;52.084;5.090;2022-11-20T04:08:28;5.20;;;5.10;;
13605;SDS011;6874;52.084;5.090;2022-11-20T04:10:54;5.30;;;5.20;;
13605;SDS011;6874;52.084;5.090;2022-11-20T04:13:19;5.90;;;5.70;;
13605;SDS011;6874;52.084;5.090;2022-11-20T04:15:45;6.97;;;6.77;;
13605;SDS011;6874;52.084;5.090;2022-11-20T04:18:10;6.60;;;6.40;;
13605;SDS011;6874;52.084;5.090;2022-11-20T04:20:36;6.63;;;6.43;;
13605;SDS011;6874;52.084;5.090;2022-11-20T04:23:01;5.80;;;5.60;;
13605;SDS011;6874;52.084;5.090;2022-11-20T04:25:27;4.90;;;4.80;;
13605;SDS011;6874;52.084;5.090;2022-11-20T04:27:52;6.43;;;6.23;;
13605;SDS011;6874;52.084;5.090;2022-11-20T04:30:18;5.30;;;5.20;;
13605;SDS011;6874;52.084;5.090;2022-11-20T04:32:43;5.13;;;5.03;;
13605;SDS011;6874;52.084;5.090;2022-11-20T04:35:09;5.10;;;5.00;;
13605;SDS011;6874;52.084;5.090;2022-11-20T04:37:34;5.27;;;5.17;;
13605;SDS011;6874;52.084;5.090;2022-11-20T04:40:00;6.27;;;6.07;;
13605;SDS011;6874;52.084;5.090;2022-11-20T04:42:25;5.47;;;5.37;;
13605;SDS011;6874;52.084;5.090;2022-11-20T04:44:54;5.10;;;5.00;;
13605;SDS011;6874;52.084;5.090;2022-11-20T04:47:20;6.27;;;6.07;;
13605;SDS011;6874;52.084;5.090;2022-11-20T04:49:46;4.80;;;4.70;;
13605;SDS011;6874;52.084;5.090;2022-11-20T04:52:12;6.00;;;5.80;;
13605;SDS011;6874;52.084;5.090;2022-11-20T04:54:38;5.47;;;5.37;;
13605;SDS011;6874;52.084;5.090;2022-11-20T04:57:03;5.20;;;5.10;;
13605;SDS011;6874;52.084;5.090;2022-11-20T04:59:29;4.97;;;4.87;;
13605;SDS011;6874;52.084;5.090;2022-11-20T05:01:54;4.30;;;4.20;;
13605;SDS011;6874;52.084;5.090;2022-11-20T05:04:20;4.73;;;4.63;;
13605;SDS011;6874;52.084;5.090;2022-11-20T05:06:46;5.60;;;5.50;;
13605;SDS011;6874;52.084;5.090;2022-11-20T05:09:12;6.10;;;5.90;;
13605;SDS011;6874;52.084;5.090;2022-11-20T05:11:37;6.10;;;5.90;;
13605;SDS011;6874;52.084;5.090;2022-11-20T05:14:03;4.73;;;4.63;;
13605;SDS011;6874;52.084;5.090;2022-11-20T05:16:29;4.90;;;4.80;;
13605;SDS011;6874;52.084;5.090;2022-11-20T05:18:54;5.20;;;5.10;;
13605;SDS011;6874;52.084;5.090;2022-11-20T05:21:20;5.10;;;5.00;;
13605;SDS011;6874;52.084;5.090;2022-11-20T05:23:46;5.03;;;4.93;;
13605;SDS011;6874;52.084;5.090;2022-11-20T05:26:13;5.73;;;5.53;;
13605;SDS011;6874;52.084;5.090;2022-11-20T05:28:43;5.30;;;5.20;;
13605;SDS011;6874;52.084;5.090;2022-11-20T05:31:09;5.40;;;5.30;;
13605;SDS011;6874;52.084;5.090;2022-11-20T05:33:43;5.20;;;5.10;;
13605;SDS011;6874;52.084;5.090;2022-11-20T05:36:10;6.17;;;5.97;;
13605;SDS011;6874;52.084;5.090;2022-11-20T05:38:36;5.32;;;5.22;;
13605;SDS011;6874;52.084;5.090;2022-11-20T05:41:03;5.90;;;5.70;;
13605;SDS011;6874;52.084;5.090;2022-11-20T05:43:31;5.80;;;5.60;;
13605;SDS011;6874;52.084;5.090;2022-11-20T05:45:58;4.90;;;4.80;;
13605;SDS011;6874;52.084;5.090;2022-11-20T05:48:23;5.17;;;5.07;;
13605;SDS011;6874;52.084;5.090;2022-11-20T05:50:49;5.10;;;5.00;;
13605;SDS011;6874;52.084;5.090;2022-11-20T05:53:15;5.43;;;5.33;;
13605;SDS011;6874;52.084;5.090;2022-11-20T05:55:40;5.70;;;5.53;;
13605;SDS011;6874;52.084;5.090;2022-11-20T05:58:06;5.30;;;5.20;;
13605;SDS011;6874;52.084;5.090;2022-11-20T06:00:31;5.60;;;5.47;;
13605;SDS011;6874;52.084;5.090;2022-11-20T06:02:57;6.07;;;5.87;;
13605;SDS011;6874;52.084;5.090;2022-11-20T06:05:22;5.30;;;5.20;;
13605;SDS011;6874;52.084;5.090;2022-11-20T06:07:48;5.53;;;5.43;;
13605;SDS011;6874;52.084;5.090;2022-11-20T06:10:13;5.70;;;5.50;;
13605;SDS011;6874;52.084;5.090;2022-11-20T06:12:39;5.87;;;5.67;;
13605;SDS011;6874;52.084;5.090;2022-11-20T06:15:04;5.40;;;5.30;;
13605;SDS011;6874;52.084;5.090;2022-11-20T06:17:31;4.50;;;4.40;;
13605;SDS011;6874;52.084;5.090;2022-11-20T06:19:56;6.20;;;6.00;;
13605;SDS011;6874;52.084;5.090;2022-11-20T06:22:22;5.37;;;5.27;;
13605;SDS011;6874;52.084;5.090;2022-11-20T06:24:47;5.93;;;5.73;;
13605;SDS011;6874;52.084;5.090;2022-11-20T06:27:13;6.00;;;5.80;;
13605;SDS011;6874;52.084;5.090;2022-11-20T06:29:38;5.53;;;5.43;;
13605;SDS011;6874;52.084;5.090;2022-11-20T06:32:04;5.20;;;5.10;;
13605;SDS011;6874;52.084;5.090;2022-11-20T06:34:30;4.90;;;4.80;;
13605;SDS011;6874;52.084;5.090;2022-11-20T06:36:55;5.00;;;4.90;;
13605;SDS011;6874;52.084;5.090;2022-11-20T06:39:21;5.47;;;5.37;;
13605;SDS011;6874;52.084;5.090;2022-11-20T06:41:46;5.70;;;5.53;;
13605;SDS011;6874;52.084;5.090;2022-11-20T06:44:12;5.10;;;5.00;;
13605;SDS011;6874;52.084;5.090;2022-11-20T06:46:37;5.27;;;5.17;;
13605;SDS011;6874;52.084;5.090;2022-11-20T06:49:03;5.27;;;5.17;;
13605;SDS011;6874;52.084;5.090;2022-11-20T06:51:28;5.40;;;5.30;;
13605;SDS011;6874;52.084;5.090;2022-11-20T06:53:54;5.87;;;5.67;;
13605;SDS011;6874;52.084;5.090;2022-11-20T06:56:20;5.40;;;5.30;;
13605;SDS011;6874;52.084;5.090;2022-11-20T06:58:45;5.00;;;4.90;;
13605;SDS011;6874;52.084;5.090;2022-11-20T07:01:12;5.20;;;5.10;;
13605;SDS011;6874;52.084;5.090;2022-11-20T07:03:39;6.07;;;5.87;;
13605;SDS011;6874;52.084;5.090;2022-11-20T07:06:05;5.23;;;5.13;;
13605;SDS011;6874;52.084;5.090;2022-11-20T07:08:31;5.23;;;5.13;;
13605;SDS011;6874;52.084;5.090;2022-11-20T07:10:58;4.60;;;4.50;;
13605;SDS011;6874;52.084;5.090;2022-11-20T07:13:29;6.30;;;6.10;;
13605;SDS011;6874;52.084;5.090;2022-11-20T07:15:59;6.23;;;6.03;;
13605;SDS011;6874;52.084;5.090;2022-11-20T07:18:29;6.10;;;5.90;;
13605;SDS011;6874;52.084;5.090;2022-11-20T07:20:55;5.30;;;5.20;;
13605;SDS011;6874;52.084;5.090;2022-11-20T07:23:20;5.07;;;4.97;;
13605;SDS011;6874;52.084;5.090;2022-11-20T07:25:46;5.60;;;5.47;;
13605;SDS011;6874;52.084;5.090;2022-11-20T07:28:11;5.10;;;5.00;;
13605;SDS011;6874;52.084;5.090;2022-11-20T07:30:38;5.43;;;5.33;;
13605;SDS011;6874;52.084;5.090;2022-11-20T07:33:04;6.30;;;6.10;;
13605;SDS011;6874;52.084;5.090;2022-11-20T07:35:29;5.90;;;5.70;;
13605;SDS011;6874;52.084;5.090;2022-11-20T07:37:55;5.43;;;5.33;;
13605;SDS011;6874;52.084;5.090;2022-11-20T07:40:20;4.97;;;4.87;;
13605;SDS011;6874;52.084;5.090;2022-11-20T07:42:50;5.07;;;4.97;;
13605;SDS011;6874;52.084;5.090;2022-11-20T07:45:17;5.57;;;5.47;;
13605;SDS011;6874;52.084;5.090;2022-11-20T07:47:43;5.20;;;5.10;;
13605;SDS011;6874;52.084;5.090;2022-11-20T07:50:09;6.07;;;5.87;;
13605;SDS011;6874;52.084;5.090;2022-11-20T07:52:35;4.77;;;4.67;;
13605;SDS011;6874;52.084;5.090;2022-11-20T07:55:01;5.03;;;4.93;;
13605;SDS011;6874;52.084;5.090;2022-11-20T07:57:26;5.60;;;5.50;;
13605;SDS011;6874;52.084;5.090;2022-11-20T07:59:52;5.70;;;5.57;;
13605;SDS011;6874;52.084;5.090;2022-11-20T08:02:17;6.20;;;6.00;;
13605;SDS011;6874;52.084;5.090;2022-11-20T08:04:43;5.07;;;4.97;;
13605;SDS011;6874;52.084;5.090;2022-11-20T08:07:08;5.30;;;5.20;;
13605;SDS011;6874;52.084;5.090;2022-11-20T08:09:34;5.33;;;5.23;;
13605;SDS011;6874;52.084;5.090;2022-11-20T08:11:59;4.80;;;4.70;;
13605;SDS011;6874;52.084;5.090;2022-11-20T08:14:43;6.10;;;5.90;;
13605;SDS011;6874;52.084;5.090;2022-11-20T08:17:09;6.30;;;6.10;;
13605;SDS011;6874;52.084;5.090;2022-11-20T08:19:35;5.90;;;5.70;;
13605;SDS011;6874;52.084;5.090;2022-11-20T08:22:00;5.17;;;5.07;;
13605;SDS011;6874;52.084;5.090;2022-11-20T08:24:26;6.10;;;5.90;;
13605;SDS011;6874;52.084;5.090;2022-11-20T08:26:51;5.70;;;5.50;;
13605;SDS011;6874;52.084;5.090;2022-11-20T08:29:17;5.97;;;5.77;;
13605;SDS011;6874;52.084;5.090;2022-11-20T08:31:43;6.27;;;6.07;;
13605;SDS011;6874;52.084;5.090;2022-11-20T08:34:09;7.40;;;7.20;;
13605;SDS011;6874;52.084;5.090;2022-11-20T08:36:35;6.67;;;6.47;;
13605;SDS011;6874;52.084;5.090;2022-11-20T08:39:01;6.03;;;5.83;;
13605;SDS011;6874;52.084;5.090;2022-11-20T08:41:27;6.07;;;5.87;;
13605;SDS011;6874;52.084;5.090;2022-11-20T08:43:57;7.63;;;7.43;;
13605;SDS011;6874;52.084;5.090;2022-11-20T08:46:25;7.60;;;7.40;;
13605;SDS011;6874;52.084;5.090;2022-11-20T08:48:52;5.87;;;5.67;;
13605;SDS011;6874;52.084;5.090;2022-11-20T08:51:18;6.63;;;6.43;;
13605;SDS011;6874;52.084;5.090;2022-11-20T08:53:45;7.20;;;7.00;;
13605;SDS011;6874;52.084;5.090;2022-11-20T08:56:11;7.30;;;7.10;;
13605;SDS011;6874;52.084;5.090;2022-11-20T08:58:37;7.20;;;7.00;;
13605;SDS011;6874;52.084;5.090;2022-11-20T09:01:03;6.07;;;5.87;;
13605;SDS011;6874;52.084;5.090;2022-11-20T09:03:29;6.23;;;6.03;;
13605;SDS011;6874;52.084;5.090;2022-11-20T09:06:01;7.00;;;6.80;;
13605;SDS011;6874;52.084;5.090;2022-11-20T09:08:29;5.27;;;5.17;;
13605;SDS011;6874;52.084;5.090;2022-11-20T09:10:56;6.10;;;5.90;;
13605;SDS011;6874;52.084;5.090;2022-11-20T09:13:22;7.07;;;6.87;;
13605;SDS011;6874;52.084;5.090;2022-11-20T09:15:55;6.50;;;6.30;;
13605;SDS011;6874;52.084;5.090;2022-11-20T09:18:26;5.63;;;5.50;;
13605;SDS011;6874;52.084;5.090;2022-11-20T09:20:57;5.90;;;5.70;;
13605;SDS011;6874;52.084;5.090;2022-11-20T09:23:24;5.87;;;5.67;;
13605;SDS011;6874;52.084;5.090;2022-11-20T09:25:50;5.20;;;5.10;;
13605;SDS011;6874;52.084;5.090;2022-11-20T09:28:15;6.27;;;6.07;;
13605;SDS011;6874;52.084;5.090;2022-11-20T09:30:43;4.53;;;4.43;;
13605;SDS011;6874;52.084;5.090;2022-11-20T09:33:09;5.50;;;5.40;;
13605;SDS011;6874;52.084;5.090;2022-11-20T09:35:34;5.77;;;5.60;;
13605;SDS011;6874;52.084;5.090;2022-11-20T09:38:06;5.57;;;5.47;;
13605;SDS011;6874;52.084;5.090;2022-11-20T09:40:32;5.60;;;5.50;;
13605;SDS011;6874;52.084;5.090;2022-11-20T09:43:19;5.90;;;5.70;;
13605;SDS011;6874;52.084;5.090;2022-11-20T09:46:04;5.50;;;5.40;;
13605;SDS011;6874;52.084;5.090;2022-11-20T09:51:56;6.00;;;5.80;;
13605;SDS011;6874;52.084;5.090;2022-11-20T09:54:34;5.90;;;5.70;;
13605;SDS011;6874;52.084;5.090;2022-11-20T09:57:03;5.60;;;5.47;;
13605;SDS011;6874;52.084;5.090;2022-11-20T09:59:45;7.50;;;7.30;;
13605;SDS011;6874;52.084;5.090;2022-11-20T10:05:03;9.90;;;9.60;;
13605;SDS011;6874;52.084;5.090;2022-11-20T10:26:52;8.10;;;7.90;;
13605;SDS011;6874;52.084;5.090;2022-11-20T10:29:34;8.30;;;8.10;;
13605;SDS011;6874;52.084;5.090;2022-11-20T10:32:04;5.53;;;5.40;;
13605;SDS011;6874;52.084;5.090;2022-11-20T10:37:23;6.47;;;6.27;;
13605;SDS011;6874;52.084;5.090;2022-11-20T10:42:24;9.53;;;9.23;;
13605;SDS011;6874;52.084;5.090;2022-11-20T10:45:02;7.63;;;7.43;;
13605;SDS011;6874;52.084;5.090;2022-11-20T10:47:57;5.90;;;5.70;;
13605;SDS011;6874;52.084;5.090;2022-11-20T10:53:51;8.67;;;8.40;;
13605;SDS011;6874;52.084;5.090;2022-11-20T10:59:35;6.30;;;6.10;;
13605;SDS011;6874;52.084;5.090;2022-11-20T11:02:29;8.17;;;7.97;;
13605;SDS011;6874;52.084;5.090;2022-11-20T11:04:58;8.97;;;8.67;;
13605;SDS011;6874;52.084;5.090;2022-11-20T11:07:38;7.07;;;6.87;;
13605;SDS011;6874;52.084;5.090;2022-11-20T11:13:06;7.83;;;7.63;;
13605;SDS011;6874;52.084;5.090;2022-11-20T11:15:39;8.73;;;8.50;;
13605;SDS011;6874;52.084;5.090;2022-11-20T11:18:09;7.03;;;6.83;;
13605;SDS011;6874;52.084;5.090;2022-11-20T11:20:36;7.80;;;7.60;;
13605;SDS011;6874;52.084;5.090;2022-11-20T11:23:02;7.37;;;7.17;;
13605;SDS011;6874;52.084;5.090;2022-11-20T11:25:36;10.00;;;9.70;;
13605;SDS011;6874;52.084;5.090;2022-11-20T11:28:03;9.50;;;9.20;;
13605;SDS011;6874;52.084;5.090;2022-11-20T11:30:44;9.83;;;9.53;;
13605;SDS011;6874;52.084;5.090;2022-11-20T11:33:10;9.97;;;9.67;;
13605;SDS011;6874;52.084;5.090;2022-11-20T11:35:44;7.77;;;7.57;;
13605;SDS011;6874;52.084;5.090;2022-11-20T11:38:13;10.83;;;10.53;;
13605;SDS011;6874;52.084;5.090;2022-11-20T11:40:42;8.13;;;7.93;;
13605;SDS011;6874;52.084;5.090;2022-11-20T11:43:49;9.77;;;9.47;;
13605;SDS011;6874;52.084;5.090;2022-11-20T11:49:08;9.63;;;9.33;;
13605;SDS011;6874;52.084;5.090;2022-11-20T11:51:57;10.23;;;9.93;;
13605;SDS011;6874;52.084;5.090;2022-11-20T11:57:05;9.80;;;9.50;;
13605;SDS011;6874;52.084;5.090;2022-11-20T12:05:17;8.30;;;8.10;;
13605;SDS011;6874;52.084;5.090;2022-11-20T12:08:02;9.87;;;9.57;;
13605;SDS011;6874;52.084;5.090;2022-11-20T12:11:00;7.10;;;6.90;;
13605;SDS011;6874;52.084;5.090;2022-11-20T12:16:07;8.53;;;8.30;;
13605;SDS011;6874;52.084;5.090;2022-11-20T12:18:39;9.20;;;8.90;;
13605;SDS011;6874;52.084;5.090;2022-11-20T12:29:43;7.90;;;7.70;;
13605;SDS011;6874;52.084;5.090;2022-11-20T12:34:56;8.43;;;8.23;;
13605;SDS011;6874;52.084;5.090;2022-11-20T12:37:34;7.87;;;7.67;;
13605;SDS011;6874;52.084;5.090;2022-11-20T12:40:17;6.87;;;6.67;;
13605;SDS011;6874;52.084;5.090;2022-11-20T12:42:53;7.00;;;6.80;;
13605;SDS011;6874;52.084;5.090;2022-11-20T12:51:26;6.13;;;5.93;;
13605;SDS011;6874;52.084;5.090;2022-11-20T12:54:17;8.37;;;8.17;;
13605;SDS011;6874;52.084;5.090;2022-11-20T12:56:57;8.77;;;8.50;;
13605;SDS011;6874;52.084;5.090;2022-11-20T13:02:41;7.60;;;7.40;;
13605;SDS011;6874;52.084;5.090;2022-11-20T13:07:47;8.03;;;7.83;;
13605;SDS011;6874;52.084;5.090;2022-11-20T13:13:25;8.30;;;8.10;;
13605;SDS011;6874;52.084;5.090;2022-11-20T13:16:49;8.40;;;8.20;;
13605;SDS011;6874;52.084;5.090;2022-11-20T13:19:04;7.13;;;6.93;;
13605;SDS011;6874;52.084;5.090;2022-11-20T13:21:43;7.73;;;7.53;;
13605;SDS011;6874;52.084;5.090;2022-11-20T13:27:02;6.73;;;6.53;;
13605;SDS011;6874;52.084;5.090;2022-11-20T13:29:44;7.03;;;6.83;;
13605;SDS011;6874;52.084;5.090;2022-11-20T13:32:19;9.13;;;8.83;;
13605;SDS011;6874;52.084;5.090;2022-11-20T13:34:56;7.30;;;7.10;;
13605;SDS011;6874;52.084;5.090;2022-11-20T13:37:36;7.50;;;7.30;;
13605;SDS011;6874;52.084;5.090;2022-11-20T13:42:36;8.10;;;7.90;;
13605;SDS011;6874;52.084;5.090;2022-11-20T13:45:09;7.30;;;7.10;;
13605;SDS011;6874;52.084;5.090;2022-11-20T13:47:51;7.90;;;7.70;;
13605;SDS011;6874;52.084;5.090;2022-11-20T13:50:19;7.70;;;7.50;;
13605;SDS011;6874;52.084;5.090;2022-11-20T13:55:40;9.17;;;8.87;;
13605;SDS011;6874;52.084;5.090;2022-11-20T13:58:24;7.73;;;7.53;;
13605;SDS011;6874;52.084;5.090;2022-11-20T14:01:16;7.63;;;7.43;;
13605;SDS011;6874;52.084;5.090;2022-11-20T14:03:44;8.50;;;8.30;;
13605;SDS011;6874;52.084;5.090;2022-11-20T14:06:26;7.37;;;7.17;;
13605;SDS011;6874;52.084;5.090;2022-11-20T14:08:56;9.13;;;8.83;;
13605;SDS011;6874;52.084;5.090;2022-11-20T14:11:23;9.00;;;8.70;;
13605;SDS011;6874;52.084;5.090;2022-11-20T14:13:58;8.60;;;8.30;;
13605;SDS011;6874;52.084;5.090;2022-11-20T14:16:26;7.87;;;7.67;;
13605;SDS011;6874;52.084;5.090;2022-11-20T14:18:54;8.67;;;8.40;;
13605;SDS011;6874;52.084;5.090;2022-11-20T14:21:24;9.13;;;8.83;;
13605;SDS011;6874;52.084;5.090;2022-11-20T14:23:52;7.63;;;7.43;;
13605;SDS011;6874;52.084;5.090;2022-11-20T14:26:18;8.53;;;8.33;;
13605;SDS011;6874;52.084;5.090;2022-11-20T14:28:50;9.10;;;8.80;;
13605;SDS011;6874;52.084;5.090;2022-11-20T14:31:22;8.10;;;7.90;;
13605;SDS011;6874;52.084;5.090;2022-11-20T14:33:50;8.87;;;8.57;;
13605;SDS011;6874;52.084;5.090;2022-11-20T14:36:18;9.17;;;8.87;;
13605;SDS011;6874;52.084;5.090;2022-11-20T14:38:46;7.90;;;7.70;;
13605;SDS011;6874;52.084;5.090;2022-11-20T14:41:19;7.37;;;7.17;;
13605;SDS011;6874;52.084;5.090;2022-11-20T14:43:58;8.33;;;8.13;;
13605;SDS011;6874;52.084;5.090;2022-11-20T14:46:25;9.37;;;9.07;;
13605;SDS011;6874;52.084;5.090;2022-11-20T14:48:55;9.83;;;9.53;;
13605;SDS011;6874;52.084;5.090;2022-11-20T14:51:37;9.37;;;9.07;;
13605;SDS011;6874;52.084;5.090;2022-11-20T14:54:17;10.57;;;10.27;;
13605;SDS011;6874;52.084;5.090;2022-11-20T14:56:58;9.50;;;9.20;;
13605;SDS011;6874;52.084;5.090;2022-11-20T14:59:27;10.13;;;9.83;;
13605;SDS011;6874;52.084;5.090;2022-11-20T15:02:15;10.67;;;10.37;;
13605;SDS011;6874;52.084;5.090;2022-11-20T15:04:47;11.33;;;11.00;;
13605;SDS011;6874;52.084;5.090;2022-11-20T15:07:24;9.70;;;9.40;;
13605;SDS011;6874;52.084;5.090;2022-11-20T15:10:05;10.13;;;9.83;;
13605;SDS011;6874;52.084;5.090;2022-11-20T15:12:34;9.10;;;8.80;;
13605;SDS011;6874;52.084;5.090;2022-11-20T15:15:02;9.90;;;9.60;;
13605;SDS011;6874;52.084;5.090;2022-11-20T15:17:30;9.20;;;8.90;;
13605;SDS011;6874;52.084;5.090;2022-11-20T15:19:57;9.50;;;9.20;;
13605;SDS011;6874;52.084;5.090;2022-11-20T15:22:24;8.97;;;8.67;;
13605;SDS011;6874;52.084;5.090;2022-11-20T15:24:50;9.00;;;8.70;;
13605;SDS011;6874;52.084;5.090;2022-11-20T15:27:15;8.23;;;8.03;;
13605;SDS011;6874;52.084;5.090;2022-11-20T15:29:41;8.90;;;8.60;;
13605;SDS011;6874;52.084;5.090;2022-11-20T15:32:07;9.27;;;8.97;;
13605;SDS011;6874;52.084;5.090;2022-11-20T15:34:33;9.47;;;9.17;;
13605;SDS011;6874;52.084;5.090;2022-11-20T15:36:59;9.70;;;9.40;;
13605;SDS011;6874;52.084;5.090;2022-11-20T15:39:24;32.57;;;31.50;;
13605;SDS011;6874;52.084;5.090;2022-11-20T15:41:50;18.13;;;17.57;;
13605;SDS011;6874;52.084;5.090;2022-11-20T15:44:15;8.97;;;8.67;;
13605;SDS011;6874;52.084;5.090;2022-11-20T15:46:41;10.10;;;9.80;;
13605;SDS011;6874;52.084;5.090;2022-11-20T15:49:11;11.07;;;10.77;;
13605;SDS011;6874;52.084;5.090;2022-11-20T15:51:39;10.63;;;10.33;;
13605;SDS011;6874;52.084;5.090;2022-11-20T15:54:11;9.90;;;9.60;;
13605;SDS011;6874;52.084;5.090;2022-11-20T15:56:43;9.13;;;8.83;;
13605;SDS011;6874;52.084;5.090;2022-11-20T15:59:09;7.83;;;7.63;;
13605;SDS011;6874;52.084;5.090;2022-11-20T16:01:34;8.47;;;8.17;;
13605;SDS011;6874;52.084;5.090;2022-11-20T16:04:00;9.27;;;8.97;;
13605;SDS011;6874;52.084;5.090;2022-11-20T16:06:26;8.90;;;8.60;;
13605;SDS011;6874;52.084;5.090;2022-11-20T16:08:52;8.83;;;8.57;;
13605;SDS011;6874;52.084;5.090;2022-11-20T16:11:17;7.40;;;7.20;;
13605;SDS011;6874;52.084;5.090;2022-11-20T16:13:43;8.87;;;8.60;;
13605;SDS011;6874;52.084;5.090;2022-11-20T16:16:28;7.50;;;7.30;;
13605;SDS011;6874;52.084;5.090;2022-11-20T16:18:57;8.20;;;8.00;;
13605;SDS011;6874;52.084;5.090;2022-11-20T16:21:23;8.83;;;8.53;;
13605;SDS011;6874;52.084;5.090;2022-11-20T16:23:58;8.73;;;8.50;;
13605;SDS011;6874;52.084;5.090;2022-11-20T16:26:28;7.83;;;7.63;;
13605;SDS011;6874;52.084;5.090;2022-11-20T16:28:54;9.10;;;8.80;;
13605;SDS011;6874;52.084;5.090;2022-11-20T16:31:20;9.30;;;9.00;;
13605;SDS011;6874;52.084;5.090;2022-11-20T16:33:49;9.00;;;8.70;;
13605;SDS011;6874;52.084;5.090;2022-11-20T16:36:16;9.17;;;8.87;;
13605;SDS011;6874;52.084;5.090;2022-11-20T16:38:42;8.13;;;7.93;;
13605;SDS011;6874;52.084;5.090;2022-11-20T16:41:08;8.53;;;8.23;;
13605;SDS011;6874;52.084;5.090;2022-11-20T16:43:48;8.73;;;8.50;;
13605;SDS011;6874;52.084;5.090;2022-11-20T16:46:19;7.87;;;7.67;;